createdAt,value
2019-03-29T00:01:22.212Z,3.80
2019-03-29T00:03:42.870Z,3.72
2019-03-29T00:06:03.598Z,3.55
2019-03-29T00:08:24.436Z,3.70
2019-03-29T00:10:45.167Z,3.83
2019-03-29T00:13:05.678Z,3.72
2019-03-29T00:15:26.191Z,3.58
2019-03-29T00:17:46.638Z,4.12
2019-03-29T00:20:07.801Z,3.90
2019-03-29T00:22:38.641Z,3.67
2019-03-29T00:24:59.209Z,3.70
2019-03-29T00:27:25.740Z,3.65
2019-03-29T00:29:46.320Z,3.80
2019-03-29T00:32:06.943Z,4.22
2019-03-29T00:34:29.176Z,4.00
2019-03-29T00:36:49.674Z,4.20
2019-03-29T00:39:10.219Z,3.60
2019-03-29T00:41:30.740Z,4.30
2019-03-29T00:43:51.321Z,3.60
2019-03-29T00:46:12.026Z,4.03
2019-03-29T00:48:35.489Z,4.30
2019-03-29T00:50:54.771Z,3.80
2019-03-29T00:53:15.488Z,4.10
2019-03-29T00:55:36.026Z,4.72
2019-03-29T00:57:56.916Z,4.55
2019-03-29T01:00:17.881Z,4.33
2019-03-29T01:02:38.502Z,3.90
2019-03-29T01:04:59.706Z,3.95
2019-03-29T01:07:25.771Z,4.37
2019-03-29T01:09:46.333Z,3.87
2019-03-29T01:12:06.969Z,4.40
2019-03-29T01:14:27.773Z,3.83
2019-03-29T01:16:48.414Z,3.77
2019-03-29T01:19:08.945Z,3.67
2019-03-29T01:21:30.524Z,3.72
2019-03-29T01:23:51.872Z,4.00
2019-03-29T01:26:12.817Z,3.98
2019-03-29T01:28:34.884Z,4.00
2019-03-29T01:30:55.463Z,4.30
2019-03-29T01:33:16.018Z,4.08
2019-03-29T01:35:36.455Z,3.92
2019-03-29T01:37:56.886Z,3.55
2019-03-29T01:40:19.487Z,3.35
2019-03-29T01:42:39.780Z,2.10
2019-03-29T01:45:00.384Z,3.17
2019-03-29T01:47:21.093Z,3.35
2019-03-29T01:49:42.617Z,3.37
2019-03-29T01:52:03.371Z,2.95
2019-03-29T01:54:23.874Z,3.08
2019-03-29T01:56:44.392Z,3.30
2019-03-29T01:59:05.194Z,3.10
2019-03-29T02:01:25.774Z,3.80
2019-03-29T02:03:47.168Z,4.17
2019-03-29T02:06:07.728Z,4.28
2019-03-29T02:08:35.771Z,4.15
2019-03-29T02:10:50.149Z,3.90
2019-03-29T02:13:10.727Z,4.40
2019-03-29T02:15:31.185Z,3.90
2019-03-29T02:17:51.784Z,4.40
2019-03-29T02:20:13.209Z,3.87
2019-03-29T02:22:33.824Z,4.25
2019-03-29T02:24:54.409Z,4.22
2019-03-29T02:27:14.978Z,4.15
2019-03-29T02:29:36.239Z,4.10
2019-03-29T02:31:57.470Z,3.67
2019-03-29T02:34:17.980Z,4.00
2019-03-29T02:36:38.495Z,3.80
2019-03-29T02:38:59.456Z,4.30
2019-03-29T02:41:20.035Z,4.03
2019-03-29T02:43:40.592Z,4.25
2019-03-29T02:46:01.161Z,3.98
2019-03-29T02:48:21.734Z,4.10
2019-03-29T02:50:42.261Z,3.98
2019-03-29T02:53:02.826Z,4.03
2019-03-29T02:55:23.691Z,4.22
2019-03-29T02:57:44.337Z,4.60
2019-03-29T03:00:07.773Z,3.80
2019-03-29T03:02:28.277Z,4.12
2019-03-29T03:04:48.770Z,4.25
2019-03-29T03:07:13.177Z,4.35
2019-03-29T03:09:33.748Z,4.20
2019-03-29T03:11:54.353Z,4.55
2019-03-29T03:14:14.872Z,4.08
2019-03-29T03:16:35.487Z,4.10
2019-03-29T03:18:56.160Z,4.22
2019-03-29T03:21:16.678Z,4.33
2019-03-29T03:23:38.342Z,3.85
2019-03-29T03:25:58.901Z,4.45
2019-03-29T03:28:19.525Z,5.10
2019-03-29T03:30:40.076Z,4.47
2019-03-29T03:33:00.624Z,4.40
2019-03-29T03:35:21.145Z,4.40
2019-03-29T03:37:41.774Z,4.58
2019-03-29T03:40:02.287Z,4.83
2019-03-29T03:42:22.823Z,4.30
2019-03-29T03:44:43.461Z,4.12
2019-03-29T03:47:04.050Z,4.25
2019-03-29T03:49:24.734Z,4.00
2019-03-29T03:51:45.335Z,4.22
2019-03-29T03:54:18.395Z,4.22
2019-03-29T03:56:39.442Z,4.58
2019-03-29T03:59:00.254Z,4.60
2019-03-29T04:01:20.781Z,4.47
2019-03-29T04:03:41.341Z,4.50
2019-03-29T04:06:01.932Z,5.17
2019-03-29T04:08:22.504Z,4.78
2019-03-29T04:10:44.074Z,5.35
2019-03-29T04:13:04.635Z,4.75
2019-03-29T04:15:25.359Z,4.90
2019-03-29T04:17:45.903Z,4.92
2019-03-29T04:20:07.227Z,4.70
2019-03-29T04:22:27.743Z,4.87
2019-03-29T04:24:48.440Z,4.17
2019-03-29T04:27:09.125Z,4.83
2019-03-29T04:29:29.650Z,5.35
2019-03-29T04:31:50.187Z,4.80
2019-03-29T04:34:10.684Z,4.80
2019-03-29T04:36:38.286Z,4.22
2019-03-29T04:38:58.819Z,4.80
2019-03-29T04:41:19.334Z,4.67
2019-03-29T04:43:40.096Z,4.75
2019-03-29T04:46:00.698Z,4.53
2019-03-29T04:48:22.348Z,5.30
2019-03-29T04:50:42.853Z,5.03
2019-03-29T04:53:04.528Z,5.35
2019-03-29T04:55:24.969Z,5.03
2019-03-29T04:57:45.535Z,5.12
2019-03-29T05:00:09.137Z,5.83
2019-03-29T05:02:29.709Z,5.42
2019-03-29T05:04:50.219Z,5.35
2019-03-29T05:07:10.835Z,5.50
2019-03-29T05:09:31.328Z,5.05
2019-03-29T05:11:51.948Z,5.60
2019-03-29T05:14:12.538Z,4.50
2019-03-29T05:16:33.152Z,5.03
2019-03-29T05:18:53.689Z,5.42
2019-03-29T05:21:14.202Z,6.15
2019-03-29T05:23:34.671Z,5.97
2019-03-29T05:25:55.194Z,6.03
2019-03-29T05:28:15.925Z,6.42
2019-03-29T05:30:36.571Z,7.17
2019-03-29T05:32:57.033Z,6.83
2019-03-29T05:35:17.665Z,6.95
2019-03-29T05:37:38.297Z,6.55
2019-03-29T05:39:58.896Z,7.05
2019-03-29T05:42:19.523Z,7.12
2019-03-29T05:44:40.948Z,7.00
2019-03-29T05:47:01.697Z,5.60
2019-03-29T05:49:22.438Z,5.53
2019-03-29T05:51:43.005Z,5.12
2019-03-29T05:54:03.683Z,5.05
2019-03-29T05:56:24.344Z,5.70
2019-03-29T05:58:44.811Z,4.70
2019-03-29T06:01:05.437Z,5.33
2019-03-29T06:03:31.980Z,5.20
2019-03-29T06:05:52.508Z,5.05
2019-03-29T06:08:13.178Z,5.55
2019-03-29T06:10:33.673Z,5.47
2019-03-29T06:12:54.354Z,5.42
2019-03-29T06:15:15.210Z,5.72
2019-03-29T06:17:47.986Z,5.92
2019-03-29T06:19:58.297Z,5.90
2019-03-29T06:22:21.959Z,5.80
2019-03-29T06:24:42.508Z,6.40
2019-03-29T06:27:03.122Z,6.53
2019-03-29T06:31:55.840Z,5.58
2019-03-29T06:34:16.488Z,5.33
2019-03-29T06:36:37.615Z,4.92
2019-03-29T06:38:57.891Z,5.05
2019-03-29T06:41:17.909Z,5.15
2019-03-29T06:43:38.167Z,5.07
2019-03-29T06:46:00.085Z,4.50
2019-03-29T06:48:20.130Z,5.30
2019-03-29T06:50:41.161Z,5.58
2019-03-29T06:53:01.200Z,5.65
2019-03-29T06:55:21.439Z,5.50
2019-03-29T06:57:41.660Z,6.17
2019-03-29T07:00:02.440Z,6.10
2019-03-29T07:02:24.132Z,6.20
2019-03-29T07:04:44.177Z,5.72
2019-03-29T07:07:04.868Z,6.72
2019-03-29T07:09:25.456Z,6.83
2019-03-29T07:11:45.963Z,6.28
2019-03-29T07:14:06.570Z,6.20
2019-03-29T07:16:26.591Z,6.62
2019-03-29T07:18:47.084Z,6.70
2019-03-29T07:21:20.979Z,6.22
2019-03-29T07:23:30.659Z,6.60
2019-03-29T07:25:51.572Z,6.45
2019-03-29T07:28:16.037Z,6.53
2019-03-29T07:30:36.116Z,6.08
2019-03-29T07:32:56.248Z,6.20
2019-03-29T07:35:16.242Z,6.58
2019-03-29T07:37:37.437Z,6.33
2019-03-29T07:39:57.758Z,5.87
2019-03-29T07:42:18.047Z,6.27
2019-03-29T07:44:43.714Z,6.03
2019-03-29T07:47:03.978Z,6.17
2019-03-29T07:49:24.204Z,6.10
2019-03-29T07:51:44.460Z,6.30
2019-03-29T07:54:04.935Z,6.00
2019-03-29T07:56:25.256Z,6.07
2019-03-29T07:58:45.489Z,6.53
2019-03-29T08:01:05.747Z,6.03
2019-03-29T08:03:26.180Z,6.00
2019-03-29T08:05:46.410Z,7.00
2019-03-29T08:08:06.675Z,6.20
2019-03-29T08:10:30.950Z,6.47
2019-03-29T08:12:50.526Z,6.70
2019-03-29T08:15:11.180Z,6.57
2019-03-29T08:17:31.435Z,5.90
2019-03-29T08:20:12.894Z,6.10
2019-03-29T08:22:13.871Z,6.43
2019-03-29T08:24:34.441Z,6.45
2019-03-29T08:26:54.321Z,6.05
2019-03-29T08:29:14.783Z,6.47
2019-03-29T08:31:35.221Z,6.30
2019-03-29T08:33:55.835Z,6.12
2019-03-29T08:36:16.351Z,6.28
2019-03-29T08:38:37.629Z,6.23
2019-03-29T08:40:57.872Z,7.13
2019-03-29T08:43:18.324Z,6.70
2019-03-29T08:45:38.864Z,6.33
2019-03-29T08:47:58.831Z,6.05
2019-03-29T08:50:19.332Z,6.53
2019-03-29T08:52:39.547Z,5.50
2019-03-29T08:54:59.743Z,6.47
2019-03-29T08:57:20.399Z,6.85
2019-03-29T08:59:40.413Z,6.47
2019-03-29T09:02:01.041Z,6.70
2019-03-29T09:04:21.877Z,6.50
2019-03-29T09:06:52.673Z,6.60
2019-03-29T09:09:06.452Z,6.23
2019-03-29T09:11:26.841Z,7.25
2019-03-29T09:13:46.942Z,6.28
2019-03-29T09:16:06.969Z,7.08
2019-03-29T09:18:27.001Z,6.75
2019-03-29T09:20:47.074Z,6.85
2019-03-29T09:23:10.302Z,6.60
2019-03-29T09:25:28.887Z,6.07
2019-03-29T09:27:49.247Z,7.27
2019-03-29T09:30:09.643Z,7.40
2019-03-29T09:32:30.718Z,6.83
2019-03-29T09:34:50.938Z,6.77
2019-03-29T09:37:11.117Z,7.33
2019-03-29T09:39:31.291Z,7.80
2019-03-29T09:41:51.701Z,7.67
2019-03-29T09:44:11.962Z,6.83
2019-03-29T09:46:33.110Z,6.87
2019-03-29T09:48:53.546Z,7.30
2019-03-29T09:51:14.030Z,7.20
2019-03-29T09:53:34.299Z,7.17
2019-03-29T09:55:54.756Z,7.23
2019-03-29T09:58:20.977Z,7.50
2019-03-29T10:00:41.242Z,6.90
2019-03-29T10:03:01.481Z,7.07
2019-03-29T10:05:22.007Z,6.83
2019-03-29T10:07:42.210Z,6.97
2019-03-29T10:10:02.631Z,6.80
2019-03-29T10:12:24.132Z,7.07
2019-03-29T10:14:44.622Z,7.00
2019-03-29T10:17:04.842Z,7.17
2019-03-29T10:19:25.149Z,7.40
2019-03-29T10:21:45.388Z,7.47
2019-03-29T10:24:05.784Z,7.17
2019-03-29T10:26:26.062Z,7.17
2019-03-29T10:28:46.216Z,7.20
2019-03-29T10:31:06.599Z,7.07
2019-03-29T10:33:27.004Z,7.20
2019-03-29T10:35:51.898Z,6.67
2019-03-29T10:38:09.376Z,7.47
2019-03-29T10:40:29.596Z,6.63
2019-03-29T10:42:57.494Z,6.50
2019-03-29T10:45:12.175Z,6.90
2019-03-29T10:47:43.287Z,6.17
2019-03-29T10:49:54.711Z,6.57
2019-03-29T10:52:15.029Z,6.53
2019-03-29T10:54:35.283Z,6.90
2019-03-29T10:56:55.600Z,7.87
2019-03-29T10:59:26.571Z,7.60
2019-03-29T11:01:38.774Z,7.12
2019-03-29T11:03:58.809Z,7.25
2019-03-29T11:06:19.112Z,7.15
2019-03-29T11:08:39.467Z,7.40
2019-03-29T11:10:59.742Z,7.03
2019-03-29T11:13:20.065Z,6.47
2019-03-29T11:15:40.289Z,6.77
2019-03-29T11:18:00.657Z,7.17
2019-03-29T11:20:21.962Z,7.13
2019-03-29T11:22:42.204Z,7.83
2019-03-29T11:25:02.590Z,7.93
2019-03-29T11:27:23.122Z,7.43
2019-03-29T11:29:43.470Z,8.13
2019-03-29T11:32:03.689Z,7.63
2019-03-29T11:34:24.014Z,7.40
2019-03-29T11:36:44.279Z,7.33
2019-03-29T11:39:06.973Z,8.07
2019-03-29T11:41:27.215Z,7.65
2019-03-29T11:43:47.280Z,8.10
2019-03-29T11:46:07.526Z,7.63
2019-03-29T11:48:29.572Z,8.00
2019-03-29T11:50:49.727Z,7.10
2019-03-29T11:53:10.090Z,7.37
2019-03-29T11:55:33.438Z,7.73
2019-03-29T11:57:55.786Z,7.70
2019-03-29T12:00:19.584Z,7.92
2019-03-29T12:02:39.852Z,8.18
2019-03-29T12:04:59.842Z,7.70
2019-03-29T12:07:20.255Z,8.00
2019-03-29T12:09:40.561Z,8.10
2019-03-29T12:12:00.720Z,8.20
2019-03-29T12:14:21.986Z,7.37
2019-03-29T12:16:42.274Z,8.00
2019-03-29T12:19:02.572Z,7.87
2019-03-29T12:21:22.862Z,8.03
2019-03-29T12:23:43.020Z,8.23
2019-03-29T12:26:03.353Z,7.53
2019-03-29T12:28:23.667Z,7.67
2019-03-29T12:30:44.775Z,8.37
2019-03-29T12:33:05.139Z,8.07
2019-03-29T12:35:25.585Z,8.67
2019-03-29T12:37:45.896Z,8.20
2019-03-29T12:40:08.307Z,7.13
2019-03-29T12:42:28.588Z,7.40
2019-03-29T12:44:48.558Z,6.83
2019-03-29T12:47:08.991Z,7.20
2019-03-29T12:49:29.250Z,8.17
2019-03-29T12:51:49.395Z,7.77
2019-03-29T12:54:12.127Z,8.83
2019-03-29T12:56:31.543Z,8.33
2019-03-29T12:58:51.966Z,7.53
2019-03-29T13:01:12.348Z,7.63
2019-03-29T13:03:32.885Z,7.13
2019-03-29T13:05:53.169Z,7.10
2019-03-29T13:08:13.421Z,6.60
2019-03-29T13:10:33.577Z,7.13
2019-03-29T13:12:53.798Z,6.73
2019-03-29T13:15:14.197Z,6.93
2019-03-29T13:17:34.694Z,7.40
2019-03-29T13:19:55.065Z,7.10
2019-03-29T13:22:15.390Z,7.70
2019-03-29T13:24:35.589Z,7.70
2019-03-29T13:26:55.729Z,7.40
2019-03-29T13:29:16.054Z,7.87
2019-03-29T13:31:36.372Z,7.67
2019-03-29T13:33:56.915Z,7.90
2019-03-29T13:36:17.133Z,7.57
2019-03-29T13:38:37.464Z,6.90
2019-03-29T13:40:57.716Z,6.90
2019-03-29T13:43:18.077Z,7.00
2019-03-29T13:45:38.533Z,7.30
2019-03-29T13:47:58.787Z,7.80
2019-03-29T13:50:19.161Z,7.37
2019-03-29T13:52:39.450Z,7.80
2019-03-29T13:54:59.848Z,7.57
2019-03-29T13:57:20.258Z,7.37
2019-03-29T13:59:40.540Z,6.57
2019-03-29T14:02:01.193Z,6.93
2019-03-29T14:04:21.358Z,8.10
2019-03-29T14:06:41.600Z,8.20
2019-03-29T14:09:01.784Z,8.00
2019-03-29T14:11:23.503Z,7.53
2019-03-29T14:13:43.745Z,8.60
2019-03-29T14:16:04.065Z,7.23
2019-03-29T14:18:24.452Z,7.50
2019-03-29T14:20:44.711Z,7.63
2019-03-29T14:23:05.098Z,7.63
2019-03-29T14:25:25.317Z,7.57
2019-03-29T14:27:45.610Z,6.73
2019-03-29T14:30:07.896Z,6.70
2019-03-29T14:32:28.126Z,6.60
2019-03-29T14:34:48.023Z,6.72
2019-03-29T14:37:08.017Z,7.33
2019-03-29T14:39:27.903Z,7.22
2019-03-29T14:41:48.054Z,6.90
2019-03-29T14:44:07.947Z,7.05
2019-03-29T14:46:27.842Z,7.25
2019-03-29T14:48:47.794Z,7.20
2019-03-29T14:51:07.705Z,7.17
2019-03-29T14:53:27.682Z,7.35
2019-03-29T14:55:47.926Z,7.20
2019-03-29T14:58:08.236Z,7.67
2019-03-29T15:00:39.961Z,7.33
2019-03-29T15:03:00.212Z,7.40
2019-03-29T15:05:20.544Z,6.63
2019-03-29T15:07:42.783Z,7.83
2019-03-29T15:10:05.032Z,7.97
2019-03-29T15:12:25.243Z,7.25
2019-03-29T15:14:45.217Z,7.65
2019-03-29T15:17:05.560Z,7.80
2019-03-29T15:19:25.581Z,7.17
2019-03-29T15:21:45.536Z,7.65
2019-03-29T15:24:05.703Z,7.67
2019-03-29T15:26:25.761Z,6.90
2019-03-29T15:28:45.709Z,7.42
2019-03-29T15:31:08.194Z,7.00
2019-03-29T15:33:29.458Z,7.23
2019-03-29T15:35:50.863Z,6.57
2019-03-29T15:38:11.214Z,7.27
2019-03-29T15:40:31.538Z,6.73
2019-03-29T15:42:51.812Z,7.23
2019-03-29T15:45:20.218Z,6.67
2019-03-29T15:47:35.749Z,6.50
2019-03-29T15:49:56.618Z,6.37
2019-03-29T15:52:16.995Z,6.20
2019-03-29T15:54:37.207Z,5.83
2019-03-29T15:56:57.350Z,6.40
2019-03-29T15:59:17.611Z,6.20
2019-03-29T16:01:38.901Z,6.90
2019-03-29T16:03:59.284Z,7.40
2019-03-29T16:06:19.529Z,7.13
2019-03-29T16:08:39.864Z,7.60
2019-03-29T16:11:00.355Z,6.87
2019-03-29T16:13:22.230Z,7.00
2019-03-29T16:15:42.568Z,7.33
2019-03-29T16:18:02.936Z,7.47
2019-03-29T16:20:23.621Z,7.53
2019-03-29T16:22:43.900Z,7.73
2019-03-29T16:25:08.399Z,8.27
2019-03-29T16:27:28.749Z,8.20
2019-03-29T16:29:50.092Z,9.13
2019-03-29T16:32:10.404Z,7.77
2019-03-29T16:34:30.657Z,8.23
2019-03-29T16:36:50.996Z,8.20
2019-03-29T16:39:11.160Z,7.67
2019-03-29T16:41:31.379Z,7.50
2019-03-29T16:43:51.576Z,7.90
2019-03-29T16:46:12.021Z,7.67
2019-03-29T16:48:32.400Z,7.83
2019-03-29T16:50:52.639Z,7.63
2019-03-29T16:53:12.911Z,7.97
2019-03-29T16:55:33.578Z,7.75
2019-03-29T16:57:53.813Z,8.30
2019-03-29T17:00:15.701Z,7.70
2019-03-29T17:02:36.223Z,7.87
2019-03-29T17:04:56.457Z,8.10
2019-03-29T17:07:16.618Z,8.17
2019-03-29T17:09:36.888Z,7.43
2019-03-29T17:11:57.557Z,8.20
2019-03-29T17:14:18.126Z,7.45
2019-03-29T17:16:38.755Z,8.03
2019-03-29T17:18:58.638Z,7.95
2019-03-29T17:21:18.797Z,7.37
2019-03-29T17:23:42.448Z,7.45
2019-03-29T17:26:02.998Z,7.10
2019-03-29T17:28:23.168Z,7.40
2019-03-29T17:30:45.218Z,7.43
2019-03-29T17:33:05.901Z,7.25
2019-03-29T17:35:26.451Z,7.42
2019-03-29T17:37:47.040Z,7.12
2019-03-29T17:40:08.668Z,7.72
2019-03-29T17:42:28.773Z,7.12
2019-03-29T17:44:48.745Z,7.42
2019-03-29T17:47:09.284Z,7.67
2019-03-29T17:49:29.963Z,8.03
2019-03-29T17:51:50.599Z,7.55
2019-03-29T17:54:10.723Z,6.35
2019-03-29T17:56:31.390Z,7.12
2019-03-29T17:58:52.164Z,6.80
2019-03-29T18:01:13.108Z,7.17
2019-03-29T18:03:33.210Z,7.00
2019-03-29T18:05:53.416Z,6.72
2019-03-29T18:08:13.950Z,6.80
2019-03-29T18:10:34.510Z,6.22
2019-03-29T18:12:55.106Z,6.75
2019-03-29T18:15:15.967Z,6.72
2019-03-29T18:17:36.442Z,6.30
2019-03-29T18:19:57.044Z,5.80
2019-03-29T18:22:17.074Z,5.62
2019-03-29T18:24:37.604Z,7.33
2019-03-29T18:26:58.229Z,6.83
2019-03-29T18:29:18.353Z,8.00
2019-03-29T18:31:39.354Z,7.60
2019-03-29T18:34:01.727Z,5.87
2019-03-29T18:36:22.635Z,7.85
2019-03-29T18:38:44.700Z,7.67
2019-03-29T18:41:04.727Z,8.33
2019-03-29T18:43:25.299Z,8.88
2019-03-29T18:45:45.985Z,8.05
2019-03-29T18:48:06.534Z,7.35
2019-03-29T18:50:27.076Z,7.42
2019-03-29T18:52:47.621Z,7.37
2019-03-29T18:55:08.350Z,8.25
2019-03-29T18:57:28.946Z,8.75
2019-03-29T18:59:49.499Z,9.38
2019-03-29T19:02:10.264Z,10.28
2019-03-29T19:04:30.806Z,10.72
2019-03-29T19:06:51.550Z,10.75
2019-03-29T19:09:12.084Z,11.00
2019-03-29T19:11:32.024Z,10.48
2019-03-29T19:13:52.578Z,10.50
2019-03-29T19:16:14.136Z,11.33
2019-03-29T19:18:34.913Z,11.15
2019-03-29T19:20:57.415Z,10.75
2019-03-29T19:23:18.654Z,8.00
2019-03-29T19:25:39.212Z,10.08
2019-03-29T19:27:59.671Z,9.98
2019-03-29T19:30:21.943Z,10.95
2019-03-29T19:32:42.601Z,12.28
2019-03-29T19:35:03.379Z,11.08
2019-03-29T19:37:32.125Z,12.84
2019-03-29T19:39:52.786Z,12.78
2019-03-29T19:42:16.610Z,12.63
2019-03-29T19:44:35.783Z,12.50
2019-03-29T19:46:56.380Z,13.13
2019-03-29T19:49:16.988Z,13.48
2019-03-29T19:51:37.455Z,13.35
2019-03-29T19:54:07.121Z,12.50
2019-03-29T19:56:20.246Z,12.30
2019-03-29T19:58:40.897Z,12.75
2019-03-29T20:01:01.494Z,12.13
2019-03-29T20:03:22.154Z,12.05
2019-03-29T20:05:42.860Z,13.20
2019-03-29T20:08:03.537Z,12.73
2019-03-29T20:10:24.419Z,13.70
2019-03-29T20:12:44.961Z,13.20
2019-03-29T20:15:06.655Z,14.68
2019-03-29T20:17:27.969Z,14.13
2019-03-29T20:19:48.631Z,13.93
2019-03-29T20:22:09.256Z,13.50
2019-03-29T20:24:29.743Z,13.08
2019-03-29T20:26:50.434Z,13.78
2019-03-29T20:29:10.965Z,21.75
2019-03-29T20:31:33.616Z,83.70
2019-03-29T20:33:54.115Z,68.22
2019-03-29T20:36:22.354Z,64.55
2019-03-29T20:38:37.217Z,19.42
2019-03-29T20:40:57.764Z,15.40
2019-03-29T20:43:18.301Z,24.57
2019-03-29T20:45:38.894Z,28.15
2019-03-29T20:47:59.547Z,40.65
2019-03-29T20:50:20.288Z,48.15
2019-03-29T20:52:40.939Z,28.73
2019-03-29T20:55:01.500Z,22.30
2019-03-29T20:57:21.959Z,45.10
2019-03-29T20:59:42.600Z,29.80
2019-03-29T21:02:03.127Z,27.30
2019-03-29T21:04:23.754Z,18.35
2019-03-29T21:06:44.277Z,34.60
2019-03-29T21:09:07.093Z,31.77
2019-03-29T21:11:27.527Z,19.65
2019-03-29T21:13:48.291Z,15.03
2019-03-29T21:16:08.943Z,38.38
2019-03-29T21:18:29.550Z,17.73
2019-03-29T21:20:50.086Z,15.10
2019-03-29T21:23:10.716Z,14.33
2019-03-29T21:25:31.172Z,21.95
2019-03-29T21:27:52.033Z,15.50
2019-03-29T21:30:13.301Z,16.17
2019-03-29T21:32:33.839Z,14.40
2019-03-29T21:34:54.317Z,12.93
2019-03-29T21:37:14.904Z,13.60
2019-03-29T21:39:35.485Z,12.82
2019-03-29T21:41:56.157Z,12.47
2019-03-29T21:44:16.642Z,12.23
2019-03-29T21:46:37.118Z,13.80
2019-03-29T21:49:01.635Z,13.48
2019-03-29T21:51:23.261Z,12.88
2019-03-29T21:53:45.151Z,13.80
2019-03-29T21:56:05.752Z,12.18
2019-03-29T21:58:26.235Z,13.53
2019-03-29T22:00:47.763Z,12.80
2019-03-29T22:03:10.320Z,13.00
2019-03-29T22:05:30.692Z,12.78
2019-03-29T22:07:51.234Z,12.70
2019-03-29T22:10:12.066Z,12.40
2019-03-29T22:12:32.751Z,13.08
2019-03-29T22:14:57.115Z,12.93
2019-03-29T22:17:18.710Z,12.47
2019-03-29T22:19:39.303Z,13.05
2019-03-29T22:21:59.829Z,14.15
2019-03-29T22:24:20.307Z,13.80
2019-03-29T22:26:40.810Z,14.00
2019-03-29T22:29:02.479Z,13.65
2019-03-29T22:31:22.963Z,14.13
2019-03-29T22:33:43.535Z,14.47
2019-03-29T22:36:04.088Z,14.20
2019-03-29T22:38:24.709Z,13.72
2019-03-29T22:40:45.318Z,14.05
2019-03-29T22:43:07.411Z,13.80
2019-03-29T22:45:27.640Z,13.63
2019-03-29T22:47:48.142Z,13.70
2019-03-29T22:50:09.150Z,14.10
2019-03-29T22:52:30.758Z,13.70
2019-03-29T22:54:51.287Z,13.98
2019-03-29T22:57:12.556Z,14.60
2019-03-29T22:59:33.129Z,14.95
2019-03-29T23:01:53.962Z,14.60
2019-03-29T23:04:14.644Z,15.68
2019-03-29T23:06:35.588Z,13.95
2019-03-29T23:08:56.234Z,15.38
2019-03-29T23:11:16.981Z,16.50
2019-03-29T23:13:37.543Z,14.98
2019-03-29T23:15:58.143Z,15.32
2019-03-29T23:18:19.090Z,14.73
2019-03-29T23:20:40.104Z,15.53
2019-03-29T23:23:00.693Z,15.00
2019-03-29T23:25:21.243Z,14.40
2019-03-29T23:27:41.831Z,16.85
2019-03-29T23:30:04.170Z,16.48
2019-03-29T23:32:24.290Z,11.20
2019-03-29T23:34:44.906Z,15.75
2019-03-29T23:37:05.652Z,15.20
2019-03-29T23:39:26.117Z,15.68
2019-03-29T23:41:47.056Z,15.38
2019-03-29T23:44:07.733Z,16.37
2019-03-29T23:46:28.211Z,16.67
2019-03-29T23:48:48.754Z,16.02
2019-03-29T23:51:09.213Z,16.40
2019-03-29T23:53:29.750Z,16.05
2019-03-29T23:55:50.307Z,15.60
2019-03-29T23:58:10.791Z,15.78
